Time;durP1;ratioP1;P1;durP2;ratioP2;P2;SDS_P1;SDS_P2;PMS_P1;PMS_P2;Temp;Humidity;BMP_temperature;BMP_pressure;BME280_temperature;BME280_humidity;BME280_pressure;Samples;Min_cycle;Max_cycle;Signal;HPM_P1;HPM_P2
2023/10/15 00:01:29;;;;;;;11.90;7.05;;;;;;;5.85;100.00;101639.50;5002657;28;20030;-73
2023/10/15 00:03:55;;;;;;;13.63;7.07;;;;;;;5.83;100.00;101634.28;4999681;28;20046;-74
2023/10/15 00:06:20;;;;;;;12.65;6.68;;;;;;;5.85;100.00;101645.69;4996612;28;20033;-73
2023/10/15 00:08:46;;;;;;;11.90;7.18;;;;;;;5.87;100.00;101643.88;5001071;28;20523;-74
2023/10/15 00:11:13;;;;;;;10.30;6.65;;;;;;;5.86;100.00;101636.88;5002374;28;20022;-72
2023/10/15 00:13:38;;;;;;;13.07;7.00;;;;;;;5.83;100.00;101639.56;5020578;28;20559;-78
2023/10/15 00:16:04;;;;;;;11.73;6.78;;;;;;;5.89;100.00;101639.44;4996558;28;20061;-75
2023/10/15 00:18:29;;;;;;;10.77;6.63;;;;;;;5.94;100.00;101640.28;5001200;28;20563;-75
2023/10/15 00:21:01;;;;;;;11.43;6.47;;;;;;;5.91;100.00;101635.00;5000095;28;20105;-74
2023/10/15 00:23:30;;;;;;;10.60;6.18;;;;;;;6.01;100.00;101642.78;5003474;28;20034;-75
2023/10/15 00:25:59;;;;;;;10.82;6.07;;;;;;;6.09;100.00;101657.59;5000618;28;20109;-73
2023/10/15 00:28:29;;;;;;;9.77;5.88;;;;;;;6.17;100.00;101666.25;4992365;28;20046;-74
2023/10/15 00:30:55;;;;;;;10.68;6.03;;;;;;;6.24;100.00;101672.28;4999632;28;20085;-74
2023/10/15 00:33:20;;;;;;;8.57;5.65;;;;;;;6.32;100.00;101669.50;5003052;28;20068;-73
2023/10/15 00:35:45;;;;;;;9.15;5.10;;;;;;;6.37;100.00;101663.22;5002251;28;20354;-73
2023/10/15 00:38:15;;;;;;;7.60;5.35;;;;;;;6.40;100.00;101657.88;5002946;28;20036;-74
2023/10/15 00:40:41;;;;;;;7.78;5.05;;;;;;;6.51;100.00;101660.25;4996654;28;20069;-73
2023/10/15 00:43:07;;;;;;;5.80;4.78;;;;;;;6.56;100.00;101665.47;5001662;28;20447;-74
2023/10/15 00:45:43;;;;;;;6.47;4.63;;;;;;;6.61;100.00;101660.97;4998013;28;20109;-74
2023/10/15 00:48:11;;;;;;;8.48;5.10;;;;;;;6.66;100.00;101664.38;4996240;28;20037;-75
2023/10/15 00:50:42;;;;;;;8.48;4.90;;;;;;;6.68;100.00;101663.41;4997902;28;20100;-73
2023/10/15 00:53:21;;;;;;;8.52;5.15;;;;;;;6.74;100.00;101673.03;5000497;28;20021;-74
2023/10/15 00:55:49;;;;;;;9.15;4.90;;;;;;;6.76;100.00;101665.91;5004184;28;20096;-75
2023/10/15 00:58:21;;;;;;;7.72;4.80;;;;;;;6.66;100.00;101640.56;5002002;28;20045;-75
2023/10/15 01:00:52;;;;;;;5.93;4.55;;;;;;;6.61;100.00;101640.66;4989603;28;20236;-76
2023/10/15 01:03:33;;;;;;;5.93;4.18;;;;;;;6.56;100.00;101662.81;4995681;28;20236;-73
2023/10/15 01:06:05;;;;;;;6.88;4.13;;;;;;;6.50;100.00;101653.25;5004699;28;20037;-74
2023/10/15 01:08:41;;;;;;;7.25;5.03;;;;;;;6.53;100.00;101655.84;5000802;28;20025;-73
2023/10/15 01:11:11;;;;;;;8.85;5.55;;;;;;;6.47;100.00;101662.09;5002987;28;20036;-73
2023/10/15 01:13:38;;;;;;;8.90;5.93;;;;;;;6.42;100.00;101665.75;5000826;28;20025;-71
2023/10/15 01:16:08;;;;;;;9.85;5.78;;;;;;;6.43;100.00;101665.72;4996445;28;20038;-73
2023/10/15 01:18:33;;;;;;;7.93;5.15;;;;;;;6.45;100.00;101655.13;4998814;28;20049;-75
2023/10/15 01:21:01;;;;;;;8.63;5.40;;;;;;;6.46;100.00;101646.28;5000102;28;20029;-74
2023/10/15 01:23:32;;;;;;;10.93;5.68;;;;;;;6.43;100.00;101641.91;5001512;28;20447;-73
2023/10/15 01:26:09;;;;;;;8.32;5.32;;;;;;;6.43;100.00;101638.41;5000852;28;20045;-74
2023/10/15 01:28:37;;;;;;;8.85;5.80;;;;;;;6.42;100.00;101640.19;4994010;28;20057;-74
2023/10/15 01:31:06;;;;;;;8.68;5.60;;;;;;;6.43;100.00;101638.41;4996104;28;20140;-74
2023/10/15 01:33:45;;;;;;;10.20;6.05;;;;;;;6.42;100.00;101629.59;4998653;28;20022;-73
2023/10/15 01:36:29;;;;;;;11.02;6.03;;;;;;;6.41;100.00;101642.88;4996944;28;20104;-74
2023/10/15 01:38:57;;;;;;;7.38;5.70;;;;;;;6.30;100.00;101632.50;5000879;28;20053;-76
2023/10/15 01:41:25;;;;;;;8.52;6.13;;;;;;;6.25;100.00;101637.00;5001120;28;20117;-76
2023/10/15 01:43:56;;;;;;;7.00;5.43;;;;;;;6.17;100.00;101634.53;4999260;28;20029;-74
2023/10/15 01:46:44;;;;;;;10.32;5.63;;;;;;;6.09;100.00;101635.56;4996639;28;20030;-74
2023/10/15 01:49:09;;;;;;;8.00;5.80;;;;;;;6.02;100.00;101629.56;4996084;28;20034;-72
2023/10/15 01:51:40;;;;;;;9.50;6.07;;;;;;;5.89;100.00;101607.72;5001180;28;20494;-73
2023/10/15 01:54:09;;;;;;;8.52;6.05;;;;;;;5.94;100.00;101621.78;5000342;28;20049;-73
2023/10/15 01:56:38;;;;;;;10.48;6.70;;;;;;;5.88;100.00;101603.34;5001423;28;20475;-72
2023/10/15 01:59:10;;;;;;;10.00;6.65;;;;;;;5.90;100.00;101620.06;4998823;28;20106;-76
2023/10/15 02:01:49;;;;;;;10.73;6.78;;;;;;;5.80;100.00;101618.47;5005076;28;20091;-72
2023/10/15 02:04:23;;;;;;;7.90;6.32;;;;;;;5.81;100.00;101620.22;5006889;28;20137;-75
2023/10/15 02:06:48;;;;;;;12.63;6.63;;;;;;;5.93;100.00;101630.56;4997644;28;20068;-75
2023/10/15 02:09:21;;;;;;;10.32;6.82;;;;;;;6.11;100.00;101636.44;4996912;28;20574;-74
2023/10/15 02:11:54;;;;;;;8.50;6.28;;;;;;;6.17;100.00;101634.53;5005268;28;20042;-76
2023/10/15 02:14:22;;;;;;;13.80;6.93;;;;;;;6.23;100.00;101645.00;5001345;28;20053;-76
2023/10/15 02:16:50;;;;;;;9.70;5.93;;;;;;;6.27;100.00;101640.50;4999716;28;20026;-78
2023/10/15 02:19:28;;;;;;;10.43;6.15;;;;;;;6.22;100.00;101647.63;4999386;28;20105;-75
2023/10/15 02:21:54;;;;;;;9.30;5.80;;;;;;;6.15;100.00;101636.34;4997833;28;20038;-75
2023/10/15 02:24:19;;;;;;;9.02;5.70;;;;;;;6.07;100.00;101632.09;5003833;28;20079;-73
2023/10/15 02:26:45;;;;;;;9.80;5.28;;;;;;;5.99;100.00;101630.47;4996850;28;20032;-75
2023/10/15 02:31:56;;;;;;;6.43;4.97;;;;;;;6.14;100.00;101633.69;4999078;28;20546;-73
2023/10/15 02:34:27;;;;;;;9.45;5.40;;;;;;;6.24;100.00;101628.22;4998445;28;20038;-75
2023/10/15 02:36:53;;;;;;;6.60;5.10;;;;;;;6.28;100.00;101623.75;4998993;28;20030;-73
2023/10/15 02:39:22;;;;;;;6.97;5.35;;;;;;;6.32;100.00;101628.06;5005376;28;20455;-72
2023/10/15 02:41:47;;;;;;;6.55;5.15;;;;;;;6.32;100.00;101621.91;4995566;28;20033;-73
2023/10/15 02:44:13;;;;;;;8.82;5.28;;;;;;;6.27;100.00;101624.66;5003831;28;20040;-74
2023/10/15 02:46:47;;;;;;;9.07;5.03;;;;;;;6.26;100.00;101620.25;5000255;28;20034;-73
2023/10/15 02:49:15;;;;;;;10.98;6.07;;;;;;;6.23;100.00;101617.69;5008210;28;20518;-73
2023/10/15 02:51:42;;;;;;;7.57;5.50;;;;;;;6.15;100.00;101616.97;5000505;28;20547;-71
2023/10/15 02:54:27;;;;;;;7.13;4.90;;;;;;;6.17;100.00;101620.44;5003530;28;20072;-73
2023/10/15 02:56:56;;;;;;;7.15;5.10;;;;;;;6.17;100.00;101625.72;5001023;28;20030;-74
2023/10/15 02:59:25;;;;;;;7.00;4.95;;;;;;;6.24;100.00;101622.06;5005657;28;20504;-72
2023/10/15 03:01:55;;;;;;;5.90;3.90;;;;;;;6.30;100.00;101610.47;5002634;28;20381;-73
2023/10/15 03:04:32;;;;;;;6.75;4.65;;;;;;;6.29;100.00;101606.97;5001903;28;20065;-72
2023/10/15 03:07:16;;;;;;;5.90;4.43;;;;;;;6.28;100.00;101597.31;4997758;28;20338;-72
2023/10/15 03:09:43;;;;;;;;;;;;;;;6.32;100.00;101619.25;5001885;28;20488;-73
2023/10/15 03:12:08;;;;;;;5.72;4.30;;;;;;;6.27;100.00;101622.00;5001203;28;19924;-74
2023/10/15 03:14:34;;;;;;;9.52;5.07;;;;;;;6.23;100.00;101658.22;5002860;28;20018;-75
2023/10/15 03:16:59;;;;;;;6.88;4.40;;;;;;;6.36;100.00;101671.19;5002461;28;20133;-74
2023/10/15 03:19:25;;;;;;;7.30;4.82;;;;;;;6.39;100.00;101658.75;5002956;28;20285;-72
2023/10/15 03:21:56;;;;;;;8.02;5.25;;;;;;;6.43;100.00;101660.41;4995834;28;20452;-73
2023/10/15 03:24:22;;;;;;;7.57;5.40;;;;;;;6.44;100.00;101654.25;4995959;28;20041;-73
2023/10/15 03:26:47;;;;;;;9.43;5.70;;;;;;;6.46;100.00;101684.16;4999733;28;20026;-73
2023/10/15 03:29:13;;;;;;;8.50;6.10;;;;;;;6.45;100.00;101682.44;5002712;28;20033;-73
2023/10/15 03:31:45;;;;;;;8.77;6.38;;;;;;;6.48;100.00;101678.88;4997341;28;20543;-75
2023/10/15 03:36:48;;;;;;;8.55;5.90;;;;;;;6.58;100.00;101688.34;5002012;28;20059;-74
2023/10/15 03:39:15;;;;;;;8.77;6.05;;;;;;;6.60;100.00;101691.81;4999202;28;20122;-75
2023/10/15 03:41:49;;;;;;;11.80;6.50;;;;;;;6.56;100.00;101692.78;5000356;28;20026;-72
2023/10/15 03:44:23;;;;;;;6.30;5.70;;;;;;;6.52;100.00;101690.22;4997878;28;20026;-75
2023/10/15 03:46:48;;;;;;;6.43;5.15;;;;;;;6.52;100.00;101687.59;5009586;28;20033;-75
2023/10/15 03:49:13;;;;;;;5.00;3.95;;;;;;;6.44;100.00;101687.75;5002001;28;20377;-74
2023/10/15 03:51:47;;;;;;;3.90;3.42;;;;;;;6.44;100.00;101679.84;4999682;28;20038;-75
2023/10/15 03:54:13;;;;;;;5.85;3.55;;;;;;;6.42;100.00;101689.56;5001055;28;20087;-75
2023/10/15 03:56:43;;;;;;;4.57;3.72;;;;;;;6.39;100.00;101690.47;4994762;28;20075;-75
2023/10/15 03:59:11;;;;;;;4.72;3.63;;;;;;;6.41;100.00;101701.03;5002474;28;20018;-74
2023/10/15 04:01:42;;;;;;;6.72;4.15;;;;;;;6.37;100.00;101700.22;4999009;28;20045;-69
2023/10/15 04:04:09;;;;;;;8.20;4.38;;;;;;;6.13;100.00;101698.06;4999290;28;20044;-68
2023/10/15 04:06:35;;;;;;;7.72;5.03;;;;;;;6.15;100.00;101694.50;4999627;28;20157;-72
2023/10/15 04:11:45;;;;;;;6.03;5.28;;;;;;;6.05;100.00;101684.09;4995860;28;20041;-74
2023/10/15 04:14:57;;;;;;;7.25;5.43;;;;;;;6.00;100.00;101689.47;4998712;28;20024;-74
2023/10/15 04:17:06;;;;;;;7.88;5.25;;;;;;;6.06;100.00;101705.25;4989933;28;20060;-73
2023/10/15 04:19:31;;;;;;;8.82;5.45;;;;;;;6.10;100.00;101711.31;4994646;28;20021;-73
2023/10/15 04:22:01;;;;;;;7.93;5.38;;;;;;;6.06;100.00;101726.38;4999056;28;20048;-70
2023/10/15 04:24:36;;;;;;;7.78;5.10;;;;;;;5.94;100.00;101732.75;4998806;28;20041;-71
2023/10/15 04:27:03;;;;;;;7.85;5.55;;;;;;;5.89;100.00;101739.81;5003311;28;20041;-70
2023/10/15 04:29:30;;;;;;;7.43;4.60;;;;;;;5.77;100.00;101729.50;5007205;28;20084;-69
2023/10/15 04:32:00;;;;;;;5.50;4.80;;;;;;;5.73;100.00;101715.47;4998455;28;20026;-70
2023/10/15 04:34:29;;;;;;;8.50;5.30;;;;;;;5.73;100.00;101723.38;4998839;28;20022;-71
2023/10/15 04:36:57;;;;;;;7.20;5.65;;;;;;;5.84;100.00;101709.13;4994797;28;20018;-70
2023/10/15 04:39:23;;;;;;;7.40;6.00;;;;;;;5.84;100.00;101702.06;4994115;28;20133;-70
2023/10/15 04:41:54;;;;;;;6.22;5.13;;;;;;;5.84;100.00;101683.56;5000618;28;20101;-72
2023/10/15 04:44:28;;;;;;;7.25;5.60;;;;;;;5.79;100.00;101688.06;4995497;28;20038;-71
2023/10/15 04:46:55;;;;;;;;;;;;;;;5.80;100.00;101705.66;5005177;28;20515;-73
2023/10/15 04:49:21;;;;;;;7.63;5.90;;;;;;;5.77;100.00;101681.06;5002184;28;20011;-72
2023/10/15 04:51:46;;;;;;;8.13;5.68;;;;;;;5.77;100.00;101695.16;4999219;28;20473;-73
2023/10/15 04:54:12;;;;;;;6.72;5.95;;;;;;;5.76;100.00;101706.59;5001127;28;20026;-73
2023/10/15 04:56:38;;;;;;;8.15;6.65;;;;;;;5.77;100.00;101700.44;4998404;28;20053;-70
2023/10/15 04:59:04;;;;;;;9.60;6.32;;;;;;;5.73;100.00;101685.53;5000436;28;20111;-70
2023/10/15 05:01:31;;;;;;;8.88;6.07;;;;;;;5.78;100.00;101677.53;5004825;28;20064;-70
2023/10/15 05:03:56;;;;;;;7.43;5.00;;;;;;;5.68;100.00;101663.59;4999992;28;20388;-71
2023/10/15 05:06:22;;;;;;;4.28;3.85;;;;;;;5.63;100.00;101670.72;4998639;28;20046;-72
2023/10/15 05:08:48;;;;;;;7.00;5.25;;;;;;;5.61;100.00;101661.97;4999470;28;20270;-70
2023/10/15 05:11:13;;;;;;;6.80;6.20;;;;;;;5.66;100.00;101663.63;5002002;28;20093;-69
2023/10/15 05:13:42;;;;;;;9.45;6.40;;;;;;;5.72;100.00;101660.88;4994567;28;20092;-71
2023/10/15 05:16:08;;;;;;;6.53;5.80;;;;;;;5.78;100.00;101672.25;4999347;28;20060;-70
2023/10/15 05:18:34;;;;;;;7.57;6.00;;;;;;;5.73;100.00;101670.56;4995523;28;21253;-72
2023/10/15 05:21:03;;;;;;;10.05;5.10;;;;;;;5.72;100.00;101667.94;5000808;28;20033;-69
2023/10/15 05:23:28;;;;;;;8.07;6.20;;;;;;;5.73;100.00;101674.97;4999677;28;20064;-71
2023/10/15 05:25:54;;;;;;;7.72;7.00;;;;;;;5.69;100.00;101660.06;5003016;28;20108;-70
2023/10/15 05:28:20;;;;;;;10.48;7.97;;;;;;;5.66;100.00;101670.69;5000805;28;20074;-71
2023/10/15 05:30:46;;;;;;;10.15;8.35;;;;;;;5.64;100.00;101656.63;5004464;28;20064;-72
2023/10/15 05:33:11;;;;;;;10.73;8.98;;;;;;;5.64;100.00;101662.81;5001891;28;20500;-72
2023/10/15 05:35:40;;;;;;;11.48;8.80;;;;;;;5.60;100.00;101669.03;5003971;28;20054;-72
2023/10/15 05:38:08;;;;;;;11.00;9.98;;;;;;;5.74;100.00;101689.91;5002485;28;20022;-72
2023/10/15 05:40:34;;;;;;;12.55;11.25;;;;;;;5.70;100.00;101701.44;5002172;28;20036;-72
2023/10/15 05:43:00;;;;;;;10.45;9.48;;;;;;;5.64;100.00;101701.53;5004615;28;20026;-70
2023/10/15 05:45:25;;;;;;;11.98;10.77;;;;;;;5.60;100.00;101720.94;5000221;28;20025;-72
2023/10/15 05:47:51;;;;;;;9.02;8.07;;;;;;;5.59;100.00;101724.50;5000716;28;20058;-71
2023/10/15 05:50:16;;;;;;;7.60;6.53;;;;;;;5.57;100.00;101739.50;5035025;28;20018;-70
2023/10/15 05:52:42;;;;;;;6.28;5.05;;;;;;;5.52;100.00;101744.88;4998841;28;20018;-69
2023/10/15 05:55:11;;;;;;;6.82;4.80;;;;;;;5.50;100.00;101757.22;5010545;28;20040;-71
2023/10/15 05:57:36;;;;;;;5.40;3.80;;;;;;;5.46;100.00;101753.75;4997036;28;20022;-68
2023/10/15 06:00:17;;;;;;;3.58;2.70;;;;;;;5.34;100.00;101760.97;5003539;28;20131;-70
2023/10/15 06:02:50;;;;;;;4.18;2.72;;;;;;;5.26;100.00;101761.06;5002516;28;20619;-68
2023/10/15 06:05:16;;;;;;;2.78;2.38;;;;;;;5.18;100.00;101760.31;4994403;28;20021;-72
2023/10/15 06:07:42;;;;;;;5.43;2.75;;;;;;;5.12;100.00;101763.03;5001267;28;20018;-70
2023/10/15 06:10:09;;;;;;;5.63;2.55;;;;;;;5.04;100.00;101751.72;4993135;28;20140;-69
2023/10/15 06:12:35;;;;;;;4.47;2.10;;;;;;;5.01;100.00;101742.06;4995728;28;20050;-71
2023/10/15 06:15:00;;;;;;;2.08;1.92;;;;;;;4.99;100.00;101728.03;4996761;28;20504;-69
2023/10/15 06:17:26;;;;;;;4.25;2.55;;;;;;;5.04;100.00;101739.41;5002389;28;20034;-70
2023/10/15 06:19:51;;;;;;;4.63;2.80;;;;;;;5.14;100.00;101742.75;4999891;28;20030;-70
2023/10/15 06:22:17;;;;;;;5.65;3.13;;;;;;;5.15;100.00;101755.97;4998128;28;20049;-71
2023/10/15 06:24:46;;;;;;;5.47;3.60;;;;;;;5.09;100.00;101745.47;5003156;28;20273;-73
2023/10/15 06:27:15;;;;;;;6.97;3.70;;;;;;;5.16;100.00;101743.63;5002621;28;20226;-71
2023/10/15 06:29:41;;;;;;;6.00;4.40;;;;;;;5.17;100.00;101740.09;5001025;28;20045;-72
2023/10/15 06:32:06;;;;;;;7.40;4.85;;;;;;;5.32;100.00;101753.09;4998459;28;20038;-72
2023/10/15 06:34:32;;;;;;;6.53;4.90;;;;;;;5.31;100.00;101761.00;5002420;28;20069;-70
2023/10/15 06:36:59;;;;;;;6.43;5.40;;;;;;;5.40;100.00;101756.47;5005445;28;20029;-70
2023/10/15 06:39:27;;;;;;;6.20;5.70;;;;;;;5.41;100.00;101758.22;5001237;28;20064;-71
2023/10/15 06:41:52;;;;;;;8.25;6.50;;;;;;;5.37;100.00;101745.09;5000141;28;20030;-72
2023/10/15 06:44:19;;;;;;;7.35;6.47;;;;;;;5.55;100.00;101758.00;5007725;28;20884;-72
2023/10/15 06:46:44;;;;;;;7.30;6.35;;;;;;;5.55;100.00;101754.50;5005328;28;20028;-71
2023/10/15 06:49:10;;;;;;;7.47;6.68;;;;;;;5.67;100.00;101767.50;5004920;28;20472;-71
2023/10/15 06:51:35;;;;;;;8.20;6.45;;;;;;;5.55;100.00;101770.34;5001477;28;20388;-72
2023/10/15 06:54:01;;;;;;;7.07;6.43;;;;;;;5.60;100.00;101776.41;5001469;28;20269;-72
2023/10/15 06:56:27;;;;;;;7.88;7.05;;;;;;;5.61;100.00;101768.50;4998862;28;20068;-72
2023/10/15 06:58:52;;;;;;;7.65;6.32;;;;;;;5.59;100.00;101764.13;5003965;28;20495;-71
2023/10/15 07:01:18;;;;;;;6.53;5.65;;;;;;;5.60;100.00;101752.66;5004194;28;20238;-73
2023/10/15 07:03:43;;;;;;;8.70;5.80;;;;;;;5.51;100.00;101751.03;5001636;28;20137;-72
2023/10/15 07:06:09;;;;;;;6.38;5.22;;;;;;;5.41;100.00;101745.03;4997092;28;20040;-72
2023/10/15 07:08:34;;;;;;;9.27;5.57;;;;;;;5.50;100.00;101757.22;5004169;28;20084;-72
2023/10/15 07:11:00;;;;;;;7.70;5.60;;;;;;;5.49;100.00;101763.38;5003909;28;20052;-70
2023/10/15 07:13:26;;;;;;;7.07;5.40;;;;;;;5.54;100.00;101768.59;4998994;28;20022;-72
2023/10/15 07:15:52;;;;;;;6.55;5.38;;;;;;;5.64;100.00;101780.75;5002363;28;20038;-71
2023/10/15 07:18:17;;;;;;;9.43;5.45;;;;;;;5.73;100.00;101785.91;4997790;28;20192;-71
2023/10/15 07:20:43;;;;;;;6.18;5.25;;;;;;;5.71;100.00;101790.34;5003061;28;20026;-69
2023/10/15 07:23:09;;;;;;;9.60;4.50;;;;;;;5.63;100.00;101801.00;4993882;28;20033;-69
2023/10/15 07:25:34;;;;;;;6.13;4.30;;;;;;;5.77;100.00;101798.19;5000334;28;20088;-70
2023/10/15 07:28:00;;;;;;;6.63;4.30;;;;;;;5.83;100.00;101795.44;4994935;28;20022;-71
2023/10/15 07:30:27;;;;;;;6.68;4.40;;;;;;;5.90;100.00;101799.72;5001636;28;20037;-68
2023/10/15 07:32:57;;;;;;;5.57;4.15;;;;;;;5.98;100.00;101800.50;5002332;28;20436;-69
2023/10/15 07:35:25;;;;;;;8.07;4.57;;;;;;;6.01;100.00;101796.06;5007731;28;20252;-69
2023/10/15 07:37:51;;;;;;;6.25;4.88;;;;;;;6.27;100.00;101800.88;5002502;28;20037;-70
2023/10/15 07:40:18;;;;;;;8.75;5.80;;;;;;;6.40;100.00;101805.94;5001986;28;20096;-69
2023/10/15 07:42:58;;;;;;;8.10;5.40;;;;;;;6.42;100.00;101812.06;4998849;28;20208;-70
2023/10/15 07:45:28;;;;;;;8.07;4.80;;;;;;;6.52;100.00;101828.66;4995370;28;20516;-69
2023/10/15 07:47:56;;;;;;;6.10;5.07;;;;;;;6.53;100.00;101832.19;4997035;28;20373;-68
2023/10/15 07:50:23;;;;;;;5.97;4.78;;;;;;;6.49;100.00;101837.50;5004357;28;20051;-68
2023/10/15 07:52:49;;;;;;;9.30;5.40;;;;;;;6.40;100.00;101832.38;5002756;28;20250;-68
2023/10/15 07:55:14;;;;;;;7.85;5.70;;;;;;;6.34;100.00;101821.03;5000847;28;20049;-70
2023/10/15 07:57:40;;;;;;;8.10;5.75;;;;;;;6.32;100.00;101823.72;5001876;28;20085;-68
2023/10/15 08:00:06;;;;;;;8.00;6.20;;;;;;;6.35;100.00;101817.50;4996502;28;20026;-70
2023/10/15 08:02:32;;;;;;;7.78;5.45;;;;;;;6.40;100.00;101824.47;5013792;28;20076;-68
2023/10/15 08:04:57;;;;;;;7.68;5.15;;;;;;;6.36;100.00;101822.78;5000291;28;20025;-69
2023/10/15 08:07:23;;;;;;;7.50;5.78;;;;;;;6.52;100.00;101823.38;5003179;28;20061;-69
2023/10/15 08:09:50;;;;;;;8.95;7.35;;;;;;;6.90;100.00;101832.34;4998627;28;20137;-70
2023/10/15 08:12:16;;;;;;;9.90;6.07;;;;;;;7.04;100.00;101843.53;4997902;28;20171;-70
2023/10/15 08:14:41;;;;;;;8.50;6.15;;;;;;;7.07;100.00;101853.19;4995040;28;20034;-70
2023/10/15 08:17:07;;;;;;;8.77;5.10;;;;;;;7.05;100.00;101849.69;4998169;28;20034;-69
2023/10/15 08:19:33;;;;;;;6.70;4.68;;;;;;;7.05;100.00;101855.84;4997604;28;20052;-69
2023/10/15 08:21:59;;;;;;;7.30;4.53;;;;;;;7.25;100.00;101850.16;4999885;28;20030;-70
2023/10/15 08:24:25;;;;;;;5.63;3.83;;;;;;;7.29;100.00;101862.41;4999997;28;20290;-69
2023/10/15 08:26:50;;;;;;;6.60;4.38;;;;;;;7.20;100.00;101871.44;5001808;28;20037;-69
2023/10/15 08:29:16;;;;;;;5.57;3.70;;;;;;;7.17;100.00;101870.63;4995746;28;20038;-69
2023/10/15 08:31:41;;;;;;;7.28;3.47;;;;;;;7.05;100.00;101868.22;5003886;28;20018;-70
2023/10/15 08:34:07;;;;;;;4.22;2.90;;;;;;;6.87;100.00;101880.91;5001453;28;20422;-70
2023/10/15 08:36:32;;;;;;;5.78;3.00;;;;;;;6.83;100.00;101883.63;4994517;28;20022;-69
2023/10/15 08:39:02;;;;;;;5.93;2.97;;;;;;;6.77;100.00;101883.75;4999389;28;20029;-69
2023/10/15 08:41:30;;;;;;;6.95;3.30;;;;;;;6.89;100.00;101891.44;5005851;28;20062;-70
2023/10/15 08:43:56;;;;;;;7.00;3.25;;;;;;;6.98;100.00;101904.50;5005609;28;20022;-71
2023/10/15 08:46:22;;;;;;;7.57;2.88;;;;;;;6.91;100.00;101910.84;4997340;28;20044;-72
2023/10/15 08:48:49;;;;;;;5.28;3.10;;;;;;;6.81;100.00;101911.88;4993295;28;20022;-71
2023/10/15 08:51:20;;;;;;;4.63;2.75;;;;;;;6.63;100.00;101916.59;5000818;28;20372;-69
2023/10/15 08:53:49;;;;;;;8.35;3.25;;;;;;;6.58;100.00;101910.53;4996827;28;20065;-70
2023/10/15 08:56:20;;;;;;;5.95;3.30;;;;;;;6.66;100.00;101908.63;4996041;28;20563;-69
2023/10/15 08:58:52;;;;;;;4.97;3.15;;;;;;;6.71;100.00;101941.16;4998015;28;20044;-69
2023/10/15 09:01:17;;;;;;;5.85;3.85;;;;;;;6.64;100.00;101941.28;5011410;28;20085;-69
2023/10/15 09:03:43;;;;;;;9.18;3.85;;;;;;;6.59;100.00;101941.38;4993804;28;20042;-69
2023/10/15 09:06:08;;;;;;;7.15;3.97;;;;;;;6.67;100.00;101954.47;4994811;28;20098;-70
2023/10/15 09:08:35;;;;;;;9.23;3.00;;;;;;;6.60;100.00;101950.19;4996334;28;20058;-70
2023/10/15 09:11:01;;;;;;;6.47;3.20;;;;;;;6.67;100.00;101965.06;4999497;28;20030;-70
2023/10/15 09:13:26;;;;;;;4.43;2.67;;;;;;;6.59;100.00;101981.03;5000052;28;20389;-70
2023/10/15 09:15:52;;;;;;;6.72;2.80;;;;;;;6.65;100.00;101975.69;5009232;28;20033;-69
2023/10/15 09:18:18;;;;;;;6.38;2.45;;;;;;;6.69;100.00;101982.66;5002198;28;20104;-69
2023/10/15 09:20:45;;;;;;;5.15;2.30;;;;;;;6.62;100.00;101974.84;4993743;28;20468;-68
2023/10/15 09:23:11;;;;;;;4.53;2.00;;;;;;;6.53;100.00;101997.03;4999141;28;20417;-71
2023/10/15 09:25:37;;;;;;;5.03;2.50;;;;;;;6.67;100.00;101988.88;4999097;28;20030;-70
2023/10/15 09:28:03;;;;;;;7.60;2.38;;;;;;;6.66;100.00;101993.28;4994416;28;20034;-70
2023/10/15 09:30:32;;;;;;;6.28;2.17;;;;;;;6.80;100.00;101995.69;5003686;28;20145;-69
2023/10/15 09:32:58;;;;;;;4.43;2.42;;;;;;;6.71;100.00;101983.50;4996869;28;20050;-70
2023/10/15 09:35:24;;;;;;;4.95;2.05;;;;;;;6.85;100.00;101999.13;4993442;28;20061;-69
2023/10/15 09:37:49;;;;;;;4.90;2.30;;;;;;;7.26;100.00;101994.88;4999719;28;20029;-70
2023/10/15 09:40:23;;;;;;;4.63;2.20;;;;;;;7.20;100.00;101987.94;5002187;28;20568;-70
2023/10/15 09:42:53;;;;;;;5.30;2.03;;;;;;;7.09;100.00;101999.63;4998224;28;20135;-71
2023/10/15 09:45:19;;;;;;;5.22;2.20;;;;;;;7.08;100.00;101985.50;4999074;28;20110;-71
2023/10/15 09:47:52;;;;;;;4.53;2.50;;;;;;;7.79;100.00;101984.13;5005595;28;20023;-71
2023/10/15 09:50:24;;;;;;;4.15;2.50;;;;;;;9.89;100.00;101988.53;5001549;28;20550;-71
2023/10/15 09:53:01;;;;;;;5.97;1.75;;;;;;;9.98;100.00;101982.94;4999756;28;20025;-72
2023/10/15 09:55:28;;;;;;;3.97;1.75;;;;;;;10.15;100.00;101986.88;4999903;28;20088;-70
2023/10/15 09:57:55;;;;;;;3.03;1.65;;;;;;;9.93;100.00;101994.63;5001987;28;20029;-71
2023/10/15 10:03:37;;;;;;;2.63;1.33;;;;;;;9.13;100.00;102006.63;5003258;28;20100;-72
2023/10/15 10:06:11;;;;;;;2.38;1.40;;;;;;;8.89;100.00;102005.47;4983732;28;20050;-69
2023/10/15 10:09:36;;;;;;;1.58;1.48;;;;;;;8.78;100.00;102005.75;5006273;28;20120;-71
2023/10/15 10:12:21;;;;;;;3.95;1.58;;;;;;;8.91;100.00;102011.63;4982748;28;20110;-73
2023/10/15 10:15:05;;;;;;;3.22;1.75;;;;;;;8.91;100.00;102014.28;4998956;28;20044;-73
2023/10/15 10:17:32;;;;;;;3.25;1.50;;;;;;;8.86;100.00;102013.50;5003559;28;20018;-73
2023/10/15 10:20:01;;;;;;;4.45;1.80;;;;;;;8.69;100.00;102025.44;5000928;28;20285;-73
2023/10/15 10:22:32;;;;;;;3.03;1.65;;;;;;;8.66;100.00;102021.97;5004277;28;20040;-73
2023/10/15 10:25:01;;;;;;;3.80;1.95;;;;;;;8.66;100.00;102028.16;4997913;28;20026;-72
2023/10/15 10:27:26;;;;;;;2.88;1.60;;;;;;;8.95;100.00;102019.47;5002471;28;20125;-72
2023/10/15 10:29:53;;;;;;;2.42;1.50;;;;;;;9.09;100.00;102034.19;4995224;28;20113;-70
2023/10/15 10:32:20;;;;;;;3.80;1.73;;;;;;;9.28;100.00;102037.22;4996563;28;20069;-73
2023/10/15 10:35:05;;;;;;;1.88;1.40;;;;;;;9.35;100.00;102034.34;4982520;28;20499;-72
2023/10/15 10:37:31;;;;;;;2.65;1.55;;;;;;;9.23;100.00;102045.31;5000540;28;20033;-73
2023/10/15 10:39:59;;;;;;;3.50;1.30;;;;;;;9.10;100.00;102046.53;4999202;28;20080;-71
2023/10/15 10:42:26;;;;;;;3.28;1.30;;;;;;;9.30;100.00;102044.25;5000128;28;20036;-74
2023/10/15 10:44:56;;;;;;;3.03;1.48;;;;;;;9.26;100.00;102039.94;4998531;28;20040;-72
2023/10/15 10:47:24;;;;;;;3.25;1.40;;;;;;;9.59;100.00;102051.44;5001594;28;20500;-72
2023/10/15 10:49:58;;;;;;;2.85;1.60;;;;;;;9.55;100.00;102049.78;4998568;28;20041;-72
2023/10/15 10:52:29;;;;;;;2.83;1.60;;;;;;;9.40;100.00;102050.19;5002199;28;20052;-73
2023/10/15 10:55:16;;;;;;;2.88;1.40;;;;;;;9.11;100.00;102050.94;5003814;28;20045;-76
2023/10/15 10:57:42;;;;;;;2.78;1.40;;;;;;;9.32;100.00;102047.75;4999271;28;20041;-72
2023/10/15 11:00:12;;;;;;;3.08;1.55;;;;;;;10.63;100.00;102045.72;5008211;28;20025;-71
2023/10/15 11:02:37;;;;;;;2.47;1.35;;;;;;;11.22;99.01;102040.19;5000767;28;20108;-71
2023/10/15 11:05:04;;;;;;;2.28;1.50;;;;;;;12.72;98.66;102049.72;5005252;28;20021;-68
2023/10/15 11:07:36;;;;;;;4.30;1.40;;;;;;;14.08;90.98;102050.97;5017020;28;20038;-76
2023/10/15 11:10:07;;;;;;;3.40;1.40;;;;;;;14.03;82.93;102055.69;5001229;28;20030;-72
2023/10/15 11:12:32;;;;;;;2.78;1.20;;;;;;;13.07;82.25;102039.38;4993463;28;20023;-70
2023/10/15 11:14:58;;;;;;;5.05;1.65;;;;;;;13.11;84.71;102040.97;5009887;28;20022;-69
2023/10/15 11:17:24;;;;;;;3.58;1.20;;;;;;;12.86;85.30;102050.03;4999923;28;20540;-68
2023/10/15 11:19:50;;;;;;;3.78;1.35;;;;;;;12.14;84.60;102054.69;5002531;28;20484;-70
2023/10/15 11:22:15;;;;;;;3.25;1.35;;;;;;;11.44;88.37;102050.09;5003225;28;20029;-68
2023/10/15 11:24:43;;;;;;;5.32;2.30;;;;;;;10.88;91.25;102060.91;5003961;28;20037;-70
2023/10/15 11:27:12;;;;;;;3.30;1.83;;;;;;;10.70;93.76;102057.91;5000863;28;20022;-71
2023/10/15 11:29:37;;;;;;;4.97;2.00;;;;;;;11.03;95.88;102056.84;4998330;28;20523;-70
2023/10/15 11:32:06;;;;;;;5.07;1.88;;;;;;;11.58;95.94;102053.16;5002120;28;20053;-70
2023/10/15 11:34:33;;;;;;;4.22;1.65;;;;;;;11.86;91.91;102054.84;5003751;28;20030;-71
2023/10/15 11:37:01;;;;;;;3.40;1.67;;;;;;;12.30;92.31;102068.31;5006728;28;20029;-73
2023/10/15 11:39:37;;;;;;;3.45;1.73;;;;;;;12.81;86.24;102060.03;5007158;28;20036;-71
2023/10/15 11:42:03;;;;;;;3.33;1.40;;;;;;;12.45;86.75;102060.56;5005043;28;20027;-70